Time;durP1;ratioP1;P1;durP2;ratioP2;P2;SDS_P1;SDS_P2;PMS_P1;PMS_P2;Temp;Humidity;BMP_temperature;BMP_pressure;BME280_temperature;BME280_humidity;BME280_pressure;Samples;Min_cycle;Max_cycle;Signal;HPM_P1;HPM_P2
2022/01/17 00:00:22;;;;;;;1.50;1.40;;;;;;;-5.50;79.80;100223.00;4998346;28;20121;-68
2022/01/17 00:02:55;;;;;;;3.30;1.70;;;;;;;-5.38;79.73;100254.16;4998579;28;20284;-68
2022/01/17 00:05:26;;;;;;;3.30;2.35;;;;;;;-5.36;79.55;100272.06;4998176;28;20104;-68
2022/01/17 00:07:58;;;;;;;1.92;1.60;;;;;;;-5.45;78.76;100249.56;4998501;28;20054;-68
2022/01/17 00:10:29;;;;;;;6.35;1.92;;;;;;;-5.24;78.79;100257.38;4998400;28;20052;-67
2022/01/17 00:13:00;;;;;;;2.38;1.80;;;;;;;-5.20;78.21;100249.03;4997888;28;20054;-68
2022/01/17 00:15:42;;;;;;;3.10;1.90;;;;;;;-5.08;78.04;100259.81;5005620;28;20057;-69
2022/01/17 00:18:41;;;;;;;3.65;2.33;;;;;;;-5.21;77.87;100225.25;5011036;28;20414;-67
2022/01/17 00:21:13;;;;;;;2.55;2.30;;;;;;;-5.01;77.96;100256.75;4998194;28;20066;-68
2022/01/17 00:23:46;;;;;;;3.15;2.10;;;;;;;-4.87;78.05;100277.75;4998280;28;20285;-68
2022/01/17 00:26:17;;;;;;;1.88;1.45;;;;;;;-4.81;77.43;100265.28;4998188;28;20256;-69
2022/01/17 00:28:47;;;;;;;4.32;1.80;;;;;;;-4.74;77.27;100275.75;4998108;28;20129;-68
2022/01/17 00:31:18;;;;;;;2.03;1.80;;;;;;;-4.70;77.11;100268.31;4998002;28;20092;-68
2022/01/17 00:33:49;;;;;;;3.50;1.80;;;;;;;-4.90;77.29;100234.28;4997885;28;20088;-68
2022/01/17 00:36:20;;;;;;;3.28;1.40;;;;;;;-4.60;76.77;100295.09;5008093;28;20061;-68
2022/01/17 00:38:52;;;;;;;2.03;1.60;;;;;;;-4.65;76.65;100296.56;5014555;28;20333;-69
2022/01/17 00:41:23;;;;;;;3.88;1.85;;;;;;;-4.60;76.86;100298.50;5017426;28;20392;-68
2022/01/17 00:43:53;;;;;;;2.40;1.73;;;;;;;-4.38;76.59;100296.94;5017457;28;20408;-69
2022/01/17 00:46:24;;;;;;;4.53;1.80;;;;;;;-4.30;75.48;100279.41;5017325;28;20057;-69
2022/01/17 00:48:55;;;;;;;2.22;1.50;;;;;;;-4.39;75.04;100262.03;5017608;28;20256;-69
2022/01/17 00:51:26;;;;;;;2.15;1.55;;;;;;;-4.60;74.88;100203.31;5017297;28;20105;-68
2022/01/17 00:53:58;;;;;;;1.50;1.40;;;;;;;-4.10;74.51;100273.47;5017310;28;20065;-68
2022/01/17 00:56:34;;;;;;;1.88;1.40;;;;;;;-4.00;73.75;100244.97;5010457;28;20149;-68
2022/01/17 00:59:05;;;;;;;2.88;1.52;;;;;;;-3.97;72.83;100252.78;4999915;28;20069;-68
2022/01/17 01:01:35;;;;;;;1.80;1.45;;;;;;;-3.86;72.77;100252.34;4997580;28;20042;-68
2022/01/17 01:04:07;;;;;;;2.40;1.38;;;;;;;-3.88;72.33;100253.97;5000732;28;20199;-68
2022/01/17 01:06:37;;;;;;;1.30;1.20;;;;;;;-3.95;71.57;100253.69;5017322;28;20303;-69
2022/01/17 01:09:10;;;;;;;1.60;1.30;;;;;;;-4.04;71.44;100253.31;5013830;28;20053;-68
2022/01/17 01:11:41;;;;;;;1.45;1.30;;;;;;;-4.07;70.80;100258.28;5017159;28;20262;-69
2022/01/17 01:14:11;;;;;;;1.33;1.25;;;;;;;-4.04;71.16;100248.22;5023469;28;20121;-69
2022/01/17 01:16:43;;;;;;;2.03;1.35;;;;;;;-4.12;70.70;100240.25;5037462;28;20083;-69
2022/01/17 01:27:54;;;;;;;2.03;1.00;;;;;;;-4.14;71.11;100230.78;5001436;28;20062;-69
2022/01/17 01:30:28;;;;;;;2.05;1.00;;;;;;;-4.51;71.32;100152.69;5001220;28;20101;-69
2022/01/17 01:32:59;;;;;;;1.35;1.20;;;;;;;-4.01;71.56;100221.97;5001023;28;20062;-69
2022/01/17 01:35:32;;;;;;;1.60;1.30;;;;;;;-3.94;70.93;100219.72;5001149;28;20334;-69
2022/01/17 01:38:03;;;;;;;2.75;1.20;;;;;;;-3.78;70.72;100230.53;5001162;28;20058;-69
2022/01/17 01:40:36;;;;;;;4.25;1.10;;;;;;;-4.13;69.44;100166.16;5001189;28;20078;-68
2022/01/17 01:43:06;;;;;;;1.05;1.05;;;;;;;-3.83;68.01;100209.06;5000976;28;20150;-68
2022/01/17 01:45:37;;;;;;;2.38;1.20;;;;;;;-3.84;68.32;100209.84;5000923;28;20046;-69
2022/01/17 01:48:09;;;;;;;1.27;1.20;;;;;;;-3.81;68.58;100220.22;5000871;28;20101;-69
2022/01/17 01:50:39;;;;;;;1.98;1.23;;;;;;;-3.93;68.29;100190.81;5000839;28;20272;-69
2022/01/17 01:53:10;;;;;;;1.02;1.02;;;;;;;-3.80;67.62;100192.19;5000818;28;20097;-69
2022/01/17 01:55:42;;;;;;;1.27;1.17;;;;;;;-4.34;67.03;100116.03;5000993;28;20085;-67
2022/01/17 01:58:13;;;;;;;1.05;1.05;;;;;;;-3.75;66.85;100187.25;5001055;28;20336;-72
2022/01/17 02:00:45;;;;;;;1.33;1.20;;;;;;;-3.90;65.96;100180.72;5001262;28;20065;-71
2022/01/17 02:03:16;;;;;;;2.15;1.40;;;;;;;-3.85;66.28;100186.00;5001126;28;20059;-68
2022/01/17 02:05:47;;;;;;;1.58;1.23;;;;;;;-3.91;66.71;100184.09;5000785;28;20050;-76
2022/01/17 02:08:18;;;;;;;1.50;1.13;;;;;;;-3.90;67.11;100185.81;5004195;28;20066;-68
2022/01/17 02:10:50;;;;;;;1.30;1.20;;;;;;;-4.57;67.08;100091.22;5020384;28;20109;-66
2022/01/17 02:13:21;;;;;;;1.42;1.30;;;;;;;-3.91;67.57;100168.78;5013639;28;20240;-69
2022/01/17 02:15:52;;;;;;;1.30;1.20;;;;;;;-3.97;67.06;100147.22;5014019;28;20062;-73
2022/01/17 02:18:29;;;;;;;2.65;1.40;;;;;;;-3.77;67.77;100165.91;5000488;28;20074;-68
2022/01/17 02:21:19;;;;;;;1.92;1.60;;;;;;;-4.13;66.23;100110.91;5000476;28;20054;-70
2022/01/17 02:23:52;;;;;;;1.88;1.30;;;;;;;-3.88;66.08;100151.84;5000342;28;20325;-66
2022/01/17 02:26:24;;;;;;;2.50;1.33;;;;;;;-3.65;66.25;100163.81;5000263;28;20074;-73
2022/01/17 02:28:57;;;;;;;3.10;1.33;;;;;;;-3.65;65.50;100166.38;4999778;28;20058;-66
2022/01/17 02:31:28;;;;;;;1.33;1.23;;;;;;;-3.56;66.43;100155.66;5007789;28;20052;-68
2022/01/17 02:33:59;;;;;;;1.20;1.10;;;;;;;-3.42;66.47;100163.84;5028701;28;20209;-69
2022/01/17 02:36:31;;;;;;;1.30;1.20;;;;;;;-3.49;66.06;100163.63;5039334;28;20057;-69
2022/01/17 02:39:03;;;;;;;1.52;1.40;;;;;;;-3.52;66.44;100158.41;5039459;28;20403;-68
2022/01/17 02:41:35;;;;;;;5.25;1.30;;;;;;;-3.68;66.32;100115.19;5039232;28;20076;-72
2022/01/17 02:44:06;;;;;;;3.20;1.30;;;;;;;-3.58;66.13;100130.06;5039329;28;20072;-70
2022/01/17 02:46:37;;;;;;;1.83;1.30;;;;;;;-3.47;66.31;100130.44;5035984;28;20096;-68
2022/01/17 02:49:08;;;;;;;2.45;1.40;;;;;;;-3.52;66.67;100107.31;5028256;28;20332;-69
2022/01/17 02:51:41;;;;;;;3.10;1.50;;;;;;;-3.26;64.85;100141.47;5029408;28;20055;-70
2022/01/17 02:54:11;;;;;;;1.38;1.27;;;;;;;-3.31;64.81;100126.81;5028964;28;20540;-68
2022/01/17 02:56:42;;;;;;;2.10;1.42;;;;;;;-3.16;64.89;100126.50;5025307;28;20133;-68
2022/01/17 02:59:13;;;;;;;2.92;1.17;;;;;;;-3.13;64.23;100127.47;5027405;28;20068;-70
2022/01/17 03:01:44;;;;;;;2.03;1.40;;;;;;;-3.09;64.36;100129.34;5025505;28;20045;-69
2022/01/17 03:04:14;;;;;;;3.45;1.48;;;;;;;-3.12;63.94;100124.13;5027084;28;20046;-71
2022/01/17 03:06:47;;;;;;;3.10;1.30;;;;;;;-3.12;64.09;100119.00;5026040;28;20268;-68
2022/01/17 03:09:17;;;;;;;2.95;1.20;;;;;;;-3.05;64.51;100126.06;5027207;28;20061;-71
2022/01/17 03:11:48;;;;;;;1.92;1.40;;;;;;;-2.88;65.14;100107.91;5028172;28;20049;-67
2022/01/17 03:14:19;;;;;;;1.70;1.50;;;;;;;-2.68;64.25;100119.69;5028900;28;20240;-73
2022/01/17 03:16:50;;;;;;;1.70;1.60;;;;;;;-2.99;64.08;100056.41;5034187;28;20046;-69
2022/01/17 03:19:21;;;;;;;1.83;1.50;;;;;;;-2.82;63.36;100103.00;5038611;28;20294;-68
2022/01/17 03:21:54;;;;;;;2.40;1.45;;;;;;;-2.83;64.32;100106.38;5038768;28;20065;-72
2022/01/17 03:24:25;;;;;;;4.05;1.60;;;;;;;-3.01;64.30;100092.94;5038732;28;20045;-71
2022/01/17 03:26:56;;;;;;;1.98;1.40;;;;;;;-3.10;64.83;100089.22;5038676;28;20057;-71
2022/01/17 03:29:27;;;;;;;1.50;1.30;;;;;;;-3.09;64.36;100088.44;5038449;28;20113;-70
2022/01/17 03:31:58;;;;;;;1.52;1.30;;;;;;;-3.00;63.84;100103.22;5038390;28;20112;-71
2022/01/17 03:34:28;;;;;;;1.40;1.30;;;;;;;-2.99;65.07;100094.75;5034480;28;20049;-70
2022/01/17 03:37:02;;;;;;;2.85;1.73;;;;;;;-3.14;64.64;100069.50;5027906;28;20042;-66
2022/01/17 03:39:33;;;;;;;2.80;1.60;;;;;;;-3.03;64.78;100083.53;5027267;28;20053;-70
2022/01/17 03:42:04;;;;;;;2.50;1.65;;;;;;;-3.85;64.66;99948.59;5017694;28;20053;-67
2022/01/17 03:44:35;;;;;;;1.50;1.40;;;;;;;-3.11;65.12;100090.06;5004494;28;20408;-70
2022/01/17 03:47:06;;;;;;;3.40;1.50;;;;;;;-3.32;64.85;100073.94;4998894;28;20054;-66
2022/01/17 03:49:37;;;;;;;2.50;1.30;;;;;;;-3.60;64.31;100085.69;5016923;28;20041;-65
2022/01/17 03:52:10;;;;;;;4.20;1.80;;;;;;;-3.90;65.98;100065.84;5023812;28;20054;-66
2022/01/17 03:54:40;;;;;;;3.20;1.40;;;;;;;-3.80;66.83;100096.84;5038225;28;20546;-67
2022/01/17 03:57:11;;;;;;;1.33;1.23;;;;;;;-3.81;66.67;100087.47;5037840;28;20407;-71
2022/01/17 03:59:42;;;;;;;1.35;1.25;;;;;;;-3.86;66.88;100110.25;5038101;28;20053;-69
2022/01/17 04:02:13;;;;;;;1.55;1.23;;;;;;;-3.98;67.89;100092.78;5038034;28;20057;-66
2022/01/17 04:04:44;;;;;;;1.23;1.10;;;;;;;-4.01;67.64;100084.13;5038139;28;20533;-66
2022/01/17 04:07:18;;;;;;;3.35;1.70;;;;;;;-4.02;67.51;100093.47;5037847;28;20049;-66
2022/01/17 04:09:49;;;;;;;2.92;1.40;;;;;;;-4.02;67.06;100093.47;5037913;28;20053;-71
2022/01/17 04:12:19;;;;;;;2.22;1.50;;;;;;;-3.97;67.70;100089.44;5038043;28;20120;-67
2022/01/17 04:14:54;;;;;;;2.22;1.58;;;;;;;-3.95;68.02;100095.44;5037922;28;20072;-71
2022/01/17 04:17:27;;;;;;;3.33;1.80;;;;;;;-3.95;68.00;100089.47;5030864;28;20232;-69
2022/01/17 04:20:04;;;;;;;2.50;1.60;;;;;;;-3.96;68.40;100088.59;5027514;28;20045;-65
2022/01/17 04:22:41;;;;;;;2.25;1.38;;;;;;;-4.06;67.91;100076.28;5025302;28;20360;-66
2022/01/17 04:25:12;;;;;;;3.78;1.50;;;;;;;-3.95;68.67;100086.91;5024257;28;20317;-70
2022/01/17 04:27:43;;;;;;;1.55;1.45;;;;;;;-3.94;68.11;100076.78;5025586;28;20084;-70
2022/01/17 04:30:14;;;;;;;2.22;1.60;;;;;;;-3.94;68.07;100079.31;5026282;28;20387;-66
2022/01/17 04:32:46;;;;;;;3.72;1.67;;;;;;;-3.88;68.79;100080.38;5027502;28;20050;-69
2022/01/17 04:35:22;;;;;;;4.95;1.60;;;;;;;-3.80;68.71;100089.19;5017825;28;20504;-65
2022/01/17 04:37:57;;;;;;;2.55;1.50;;;;;;;-3.79;68.21;100085.84;5016701;28;20054;-71
2022/01/17 04:40:34;;;;;;;3.53;1.77;;;;;;;-3.82;68.02;100080.59;5017392;28;20064;-66
2022/01/17 04:43:13;;;;;;;1.42;1.20;;;;;;;-4.22;68.47;99998.28;5017498;28;20057;-67
2022/01/17 04:45:43;;;;;;;1.38;1.27;;;;;;;-3.68;67.93;100099.88;5017457;28;20054;-66
2022/01/17 04:48:14;;;;;;;1.80;1.30;;;;;;;-3.82;68.06;100071.28;5027401;28;20107;-67
2022/01/17 04:50:45;;;;;;;3.22;1.50;;;;;;;-3.99;68.38;100083.38;5026367;28;20053;-67
2022/01/17 04:53:19;;;;;;;2.60;1.50;;;;;;;-3.94;68.54;100092.09;5027201;28;20116;-70
2022/01/17 04:55:51;;;;;;;1.92;1.40;;;;;;;-4.08;69.40;100075.34;5026892;28;20117;-66
2022/01/17 04:58:21;;;;;;;4.15;1.70;;;;;;;-4.01;69.36;100085.00;5023094;28;20045;-67
2022/01/17 05:00:52;;;;;;;3.97;1.42;;;;;;;-4.12;69.32;100066.72;5025844;28;20095;-67
2022/01/17 05:03:25;;;;;;;1.90;1.50;;;;;;;-4.31;70.09;100053.19;5023267;28;20053;-72
2022/01/17 05:05:56;;;;;;;2.55;1.52;;;;;;;-4.37;70.93;100054.69;5025128;28;20237;-66
2022/01/17 05:08:28;;;;;;;2.65;1.60;;;;;;;-4.43;71.15;100074.81;5026034;28;20045;-65
2022/01/17 05:10:59;;;;;;;4.38;1.65;;;;;;;-4.65;71.93;100057.78;5027094;28;20099;-70
2022/01/17 05:13:33;;;;;;;1.30;1.20;;;;;;;-4.53;71.02;100088.00;5026293;28;20684;-67
2022/01/17 05:16:11;;;;;;;2.03;1.75;;;;;;;-4.71;71.72;100061.75;5023295;28;20050;-70
2022/01/17 05:21:29;;;;;;;2.25;1.38;;;;;;;-4.64;72.07;100094.31;5027957;28;20042;-65
2022/01/17 05:24:02;;;;;;;2.33;1.50;;;;;;;-4.83;73.19;100068.09;5036554;28;20080;-68
2022/01/17 05:26:32;;;;;;;1.42;1.17;;;;;;;-4.80;73.06;100088.59;5036632;28;20049;-66
2022/01/17 05:29:03;;;;;;;3.55;1.50;;;;;;;-4.81;73.71;100074.13;5036407;28;20323;-66
2022/01/17 05:31:34;;;;;;;4.90;1.58;;;;;;;-4.77;72.88;100078.56;5036412;28;20099;-66
2022/01/17 05:34:05;;;;;;;1.80;1.48;;;;;;;-4.65;72.82;100103.66;5036744;28;20050;-67
2022/01/17 05:36:35;;;;;;;5.38;1.70;;;;;;;-4.74;73.02;100082.91;5011040;28;20057;-69
2022/01/17 05:39:08;;;;;;;5.07;1.67;;;;;;;-4.69;73.56;100098.38;4997130;28;20104;-66
2022/01/17 05:41:39;;;;;;;3.72;1.73;;;;;;;-4.72;73.67;100095.69;5006893;28;20058;-67
2022/01/17 05:44:09;;;;;;;3.65;1.60;;;;;;;-4.72;73.96;100090.59;5007827;28;20117;-68
2022/01/17 05:46:40;;;;;;;2.70;1.58;;;;;;;-4.72;74.38;100090.59;5015097;28;20106;-69
2022/01/17 05:49:11;;;;;;;2.75;1.55;;;;;;;-4.94;74.65;100059.13;5016090;28;20079;-69
2022/01/17 05:51:42;;;;;;;3.80;1.63;;;;;;;-4.80;74.69;100078.41;5016807;28;20157;-67
2022/01/17 05:54:15;;;;;;;4.22;1.58;;;;;;;-4.81;74.62;100066.47;5016842;28;20062;-66
2022/01/17 05:56:46;;;;;;;2.67;1.55;;;;;;;-5.08;74.84;100044.91;5016829;28;20333;-69
2022/01/17 05:59:17;;;;;;;3.30;1.55;;;;;;;-4.81;74.83;100081.75;5016534;28;20073;-70
2022/01/17 06:01:48;;;;;;;1.85;1.10;;;;;;;-4.99;75.43;100055.53;5016580;28;20289;-69
2022/01/17 06:04:19;;;;;;;3.72;1.60;;;;;;;-5.25;75.73;100027.22;5019491;28;20049;-68
2022/01/17 06:06:50;;;;;;;3.60;1.58;;;;;;;-5.07;75.24;100061.94;5020731;28;20104;-65
2022/01/17 06:09:22;;;;;;;1.67;1.30;;;;;;;-5.65;75.06;99977.13;5040137;28;20053;-66
2022/01/17 06:11:59;;;;;;;1.38;1.20;;;;;;;-4.93;74.76;100081.25;5039992;28;20057;-67
2022/01/17 06:14:31;;;;;;;2.20;1.40;;;;;;;-5.20;74.95;100055.44;5039833;28;20049;-71
2022/01/17 06:17:01;;;;;;;1.30;1.20;;;;;;;-5.10;75.67;100059.25;5018373;28;20057;-70
2022/01/17 06:19:32;;;;;;;8.02;1.58;;;;;;;-5.08;75.76;100062.75;5019059;28;20061;-70
2022/01/17 06:22:04;;;;;;;3.50;1.65;;;;;;;-5.08;76.78;100067.84;5019477;28;20050;-70
2022/01/17 06:24:37;;;;;;;3.60;1.88;;;;;;;-5.21;77.98;100054.59;5019951;28;20085;-65
2022/01/17 06:27:08;;;;;;;2.60;1.80;;;;;;;-5.15;78.73;100078.56;5019841;28;20113;-67
2022/01/17 06:29:39;;;;;;;7.53;1.50;;;;;;;-5.28;79.44;100072.94;5019894;28;20080;-66
2022/01/17 06:32:10;;;;;;;2.95;1.60;;;;;;;-5.32;79.65;100076.16;5019894;28;20053;-69
2022/01/17 06:34:55;;;;;;;3.00;2.00;;;;;;;-5.47;80.07;100060.19;5011778;28;20268;-69
2022/01/17 06:37:26;;;;;;;18.42;8.02;;;;;;;-5.50;80.57;100060.06;5011399;28;20081;-72
2022/01/17 06:39:59;;;;;;;12.45;7.45;;;;;;;-5.49;80.74;100072.88;5013474;28;20116;-73
2022/01/17 06:42:29;;;;;;;8.85;4.68;;;;;;;-5.42;81.35;100094.38;5014513;28;20041;-68
2022/01/17 06:45:04;;;;;;;5.53;2.50;;;;;;;-5.75;81.84;100043.69;5015734;28;20088;-67
2022/01/17 06:47:35;;;;;;;2.28;1.45;;;;;;;-5.52;81.75;100092.22;5015594;28;20050;-70
2022/01/17 06:50:06;;;;;;;6.38;2.55;;;;;;;-5.79;81.82;100046.91;5014519;28;20064;-70
2022/01/17 06:52:38;;;;;;;3.15;1.48;;;;;;;-5.54;81.79;100088.72;5015582;28;20060;-70
2022/01/17 06:55:11;;;;;;;2.33;1.40;;;;;;;-5.51;81.86;100086.34;5015184;28;20061;-68
2022/01/17 06:57:42;;;;;;;2.95;1.70;;;;;;;-5.50;81.45;100101.66;5014688;28;20100;-68
2022/01/17 07:00:14;;;;;;;2.92;1.40;;;;;;;-5.53;81.06;100093.03;5015640;28;20245;-68
2022/01/17 07:02:50;;;;;;;2.88;1.73;;;;;;;-5.52;80.77;100098.19;5016067;28;20097;-68
2022/01/17 07:05:20;;;;;;;3.03;1.70;;;;;;;-5.56;80.96;100101.41;5015237;28;20127;-67
2022/01/17 07:07:51;;;;;;;1.90;1.58;;;;;;;-5.67;80.96;100098.34;5015348;28;20104;-68
2022/01/17 07:10:25;;;;;;;3.42;1.60;;;;;;;-5.70;80.93;100103.31;5015588;28;20049;-66
2022/01/17 07:12:56;;;;;;;2.15;1.55;;;;;;;-5.81;80.61;100089.25;5015877;28;20057;-67
2022/01/17 07:15:27;;;;;;;1.92;1.60;;;;;;;-5.92;80.47;100090.41;5015661;28;20058;-65
2022/01/17 07:17:57;;;;;;;2.50;1.58;;;;;;;-5.90;80.56;100104.06;5015610;28;20053;-67
2022/01/17 07:20:28;;;;;;;4.00;1.55;;;;;;;-5.98;80.65;100110.50;5015459;28;20061;-68
2022/01/17 07:22:59;;;;;;;5.28;1.80;;;;;;;-6.20;80.94;100068.78;5015355;28;20149;-70
2022/01/17 07:25:31;;;;;;;2.80;1.83;;;;;;;-6.10;81.49;100104.03;5014992;28;20046;-68
2022/01/17 07:28:02;;;;;;;2.63;1.65;;;;;;;-6.19;81.57;100106.16;5015219;28;20084;-65
2022/01/17 07:30:33;;;;;;;2.28;1.50;;;;;;;-6.24;81.60;100102.53;5006409;28;20232;-67
2022/01/17 07:33:05;;;;;;;2.35;1.70;;;;;;;-6.42;81.65;100083.81;5005326;28;20062;-70
2022/01/17 07:35:37;;;;;;;4.78;2.47;;;;;;;-6.43;81.26;100094.78;5005115;28;20056;-66
2022/01/17 07:38:08;;;;;;;6.63;1.90;;;;;;;-6.40;81.25;100110.19;5005294;28;20058;-72
2022/01/17 07:40:42;;;;;;;3.65;1.83;;;;;;;-6.42;81.23;100101.59;5005004;28;20085;-66
2022/01/17 07:43:14;;;;;;;5.60;1.38;;;;;;;-6.42;81.06;100107.56;5005036;28;20043;-71
2022/01/17 07:45:55;;;;;;;4.38;2.35;;;;;;;-6.47;80.93;100109.00;5005104;28;20089;-67
2022/01/17 07:51:13;;;;;;;4.43;1.70;;;;;;;-6.47;80.14;100118.31;5004474;28;20217;-67
2022/01/17 07:53:44;;;;;;;2.72;1.73;;;;;;;-6.54;79.77;100107.84;5004524;28;20331;-67
2022/01/17 07:56:16;;;;;;;5.80;1.83;;;;;;;-6.53;79.50;100129.91;5004904;28;20049;-70
2022/01/17 07:58:47;;;;;;;3.75;1.60;;;;;;;-6.55;79.36;100113.72;5004758;28;20054;-67
2022/01/17 08:01:18;;;;;;;2.30;1.63;;;;;;;-6.54;79.83;100117.13;5004749;28;20061;-66
2022/01/17 08:03:49;;;;;;;4.03;1.70;;;;;;;-6.58;79.47;100116.13;5004458;28;20046;-67
2022/01/17 08:06:20;;;;;;;3.60;1.67;;;;;;;-6.68;79.67;100093.59;5004553;28;20102;-67
2022/01/17 08:08:50;;;;;;;3.88;1.80;;;;;;;-6.55;79.22;100116.25;5004586;28;20349;-66
2022/01/17 08:11:24;;;;;;;4.45;1.83;;;;;;;-6.54;78.73;100118.03;5004847;28;20061;-67
2022/01/17 08:13:55;;;;;;;7.72;1.92;;;;;;;-7.20;78.36;99999.53;5004961;28;20062;-67
2022/01/17 08:16:26;;;;;;;4.28;1.50;;;;;;;-6.87;77.97;100055.34;5005240;28;20061;-67
2022/01/17 08:18:56;;;;;;;5.95;1.80;;;;;;;-6.56;77.68;100095.88;5004644;28;20089;-67
2022/01/17 08:21:27;;;;;;;2.53;1.50;;;;;;;-6.49;77.29;100105.50;5004716;28;20057;-67
2022/01/17 08:24:00;;;;;;;2.72;1.40;;;;;;;-6.70;77.21;100079.06;5004844;28;20248;-67
2022/01/17 08:26:32;;;;;;;4.63;1.60;;;;;;;-6.55;77.52;100090.84;5004083;28;20105;-67
2022/01/17 08:29:03;;;;;;;3.20;1.55;;;;;;;-6.53;77.26;100104.50;5003622;28;20065;-67
2022/01/17 08:31:33;;;;;;;3.83;1.60;;;;;;;-6.53;77.49;100099.41;5004225;28;20333;-67
2022/01/17 08:34:04;;;;;;;4.78;1.67;;;;;;;-6.69;77.90;100063.00;5003693;28;20267;-67
2022/01/17 08:36:35;;;;;;;2.67;1.50;;;;;;;-6.41;78.19;100093.19;5003872;28;20081;-67
2022/01/17 08:39:06;;;;;;;5.00;1.73;;;;;;;-6.28;77.50;100115.00;5004204;28;20534;-68
2022/01/17 08:41:42;;;;;;;1.55;1.20;;;;;;;-6.29;77.55;100109.03;5004383;28;20092;-68
2022/01/17 08:44:13;;;;;;;1.75;1.50;;;;;;;-6.27;77.56;100104.88;5004037;28;20101;-68
2022/01/17 08:46:45;;;;;;;4.15;1.70;;;;;;;-6.25;77.19;100095.66;5004275;28;20068;-68
2022/01/17 08:49:17;;;;;;;9.05;3.03;;;;;;;-6.31;77.07;100100.47;5003703;28;20081;-67
2022/01/17 08:51:48;;;;;;;5.10;1.75;;;;;;;-6.23;77.36;100101.72;5004196;28;20062;-67
2022/01/17 08:54:19;;;;;;;3.75;1.50;;;;;;;-6.17;77.12;100104.53;5003603;28;20108;-67
2022/01/17 08:56:51;;;;;;;4.85;1.90;;;;;;;-6.15;77.55;100099.53;5002699;28;20268;-67
2022/01/17 08:59:21;;;;;;;2.50;1.52;;;;;;;-6.16;77.85;100096.13;5002638;28;20289;-67
2022/01/17 09:01:52;;;;;;;4.20;1.75;;;;;;;-6.28;78.62;100074.31;5001126;28;20062;-67
2022/01/17 09:04:23;;;;;;;7.78;2.45;;;;;;;-6.13;78.96;100098.81;5001600;28;20095;-69
2022/01/17 09:06:54;;;;;;;3.00;1.60;;;;;;;-6.23;79.01;100109.34;5003150;28;20042;-67
2022/01/17 09:09:24;;;;;;;3.03;1.83;;;;;;;-6.32;78.92;100093.63;5003749;28;21039;-68
2022/01/17 09:11:57;;;;;;;7.75;2.05;;;;;;;-6.34;78.88;100105.38;5003857;28;20252;-68
2022/01/17 09:14:28;;;;;;;7.55;1.60;;;;;;;-6.39;78.96;100107.72;5003865;28;20056;-67
2022/01/17 09:16:59;;;;;;;5.20;1.75;;;;;;;-6.43;78.76;100115.13;5002846;28;20308;-67
2022/01/17 09:19:29;;;;;;;1.85;1.50;;;;;;;-6.44;78.12;100100.66;5001975;28;20050;-67
2022/01/17 09:22:01;;;;;;;4.68;1.50;;;;;;;-6.46;77.50;100104.78;5001331;28;20535;-67
2022/01/17 09:24:31;;;;;;;2.17;1.55;;;;;;;-6.47;77.54;100108.13;5002704;28;20062;-64
2022/01/17 09:27:05;;;;;;;5.22;1.88;;;;;;;-6.56;77.73;100101.81;5001716;28;20084;-67
2022/01/17 09:29:36;;;;;;;2.58;1.70;;;;;;;-6.71;77.35;100088.34;5006332;28;20065;-67
2022/01/17 09:32:08;;;;;;;2.97;1.55;;;;;;;-6.68;77.46;100105.44;5012586;28;20089;-68
2022/01/17 09:34:40;;;;;;;4.70;2.15;;;;;;;-6.82;77.49;100079.31;5011918;28;20109;-67
2022/01/17 09:37:12;;;;;;;4.47;1.73;;;;;;;-6.78;77.23;100104.09;5011930;28;20113;-68
2022/01/17 09:39:43;;;;;;;6.50;1.70;;;;;;;-6.78;77.42;100091.38;5015433;28;21002;-68
2022/01/17 09:42:15;;;;;;;5.45;2.05;;;;;;;-6.62;77.29;100109.13;5015675;28;20073;-68
2022/01/17 09:44:47;;;;;;;6.03;1.80;;;;;;;-6.70;77.71;100094.31;5015792;28;20088;-68
2022/01/17 09:47:18;;;;;;;6.40;2.28;;;;;;;-6.66;78.10;100116.50;5015586;28;20053;-68
2022/01/17 09:49:54;;;;;;;4.70;1.88;;;;;;;-6.77;77.43;100118.53;5015603;28;20130;-67
2022/01/17 09:52:39;;;;;;;6.10;1.70;;;;;;;-6.82;77.97;100114.88;5015772;28;20894;-67
2022/01/17 09:55:12;;;;;;;3.83;1.90;;;;;;;-6.92;78.32;100102.50;5015687;28;20053;-67
2022/01/17 09:57:49;;;;;;;5.85;2.10;;;;;;;-7.06;78.58;100090.00;5015199;28;20058;-68
2022/01/17 10:00:24;;;;;;;6.60;1.83;;;;;;;-6.92;79.19;100112.66;5015169;28;20068;-68
2022/01/17 10:02:56;;;;;;;4.78;1.80;;;;;;;-6.88;79.65;100106.97;5016813;28;20115;-67
2022/01/17 10:05:29;;;;;;;3.17;1.60;;;;;;;-6.96;79.34;100092.19;5016579;28;20062;-67
2022/01/17 10:08:04;;;;;;;5.30;1.73;;;;;;;-6.85;79.29;100100.34;5016876;28;20411;-66
2022/01/17 10:10:38;;;;;;;7.05;2.22;;;;;;;-6.84;79.22;100101.22;5016712;28;20054;-68
2022/01/17 10:13:13;;;;;;;7.88;1.98;;;;;;;-6.66;79.17;100117.41;5016216;28;20072;-68
2022/01/17 10:15:59;;;;;;;4.60;2.20;;;;;;;-6.71;79.38;100093.44;5014450;28;20140;-69
2022/01/17 10:18:35;;;;;;;6.88;2.70;;;;;;;-6.64;79.41;100087.88;5014541;28;20107;-69
2022/01/17 10:21:12;;;;;;;6.78;2.10;;;;;;;-6.58;79.17;100098.31;5016642;28;20049;-71
2022/01/17 10:24:14;;;;;;;4.53;1.90;;;;;;;-6.58;79.12;100080.53;5016058;28;20303;-70
2022/01/17 10:35:14;;;;;;;4.95;2.78;;;;;;;-6.71;78.82;100047.69;5015962;28;20321;-70
2022/01/17 10:37:58;;;;;;;5.57;1.98;;;;;;;-6.37;78.60;100105.25;5015063;28;20046;-71
2022/01/17 10:40:29;;;;;;;4.65;1.83;;;;;;;-6.47;78.39;100082.72;5015616;28;20601;-71
2022/01/17 10:43:04;;;;;;;3.92;1.75;;;;;;;-6.35;78.62;100093.50;5015422;28;20104;-68
2022/01/17 10:45:43;;;;;;;4.18;1.88;;;;;;;-6.53;78.49;100074.00;5016029;28;20068;-72
2022/01/17 10:48:14;;;;;;;3.35;1.58;;;;;;;-6.42;78.75;100097.38;5015841;28;20060;-71
2022/01/17 10:50:48;;;;;;;3.67;1.80;;;;;;;-6.45;78.73;100088.75;5015101;28;20352;-72
2022/01/17 10:53:19;;;;;;;5.20;2.10;;;;;;;-6.38;78.83;100090.81;5015790;28;20057;-71
2022/01/17 10:55:52;;;;;;;4.25;2.38;;;;;;;-6.45;78.64;100070.97;5015956;28;20073;-72
2022/01/17 10:58:25;;;;;;;8.18;2.00;;;;;;;-6.41;78.75;100093.19;5015769;28;20164;-70
2022/01/17 11:00:59;;;;;;;5.15;2.58;;;;;;;-6.39;78.84;100096.66;5015338;28;20121;-71
2022/01/17 11:03:33;;;;;;;4.43;1.90;;;;;;;-6.63;78.68;100051.47;5015011;28;20061;-73
2022/01/17 11:06:06;;;;;;;12.50;4.80;;;;;;;-6.74;78.94;100035.72;5015642;28;20550;-71
2022/01/17 11:08:39;;;;;;;6.05;2.10;;;;;;;-6.54;79.11;100092.59;5015689;28;20065;-70
2022/01/17 11:11:11;;;;;;;2.85;2.05;;;;;;;-6.57;79.40;100107.69;5015386;28;20084;-70
2022/01/17 11:13:47;;;;;;;9.05;2.67;;;;;;;-6.62;79.38;100088.78;5015405;28;20112;-70
2022/01/17 11:16:22;;;;;;;4.72;2.10;;;;;;;-6.64;79.43;100085.31;5015375;28;20224;-69
2022/01/17 11:19:00;;;;;;;4.45;2.22;;;;;;;-6.69;79.53;100071.50;5015409;28;20315;-69
2022/01/17 11:21:32;;;;;;;6.47;2.10;;;;;;;-6.58;79.49;100089.84;5015465;28;20054;-71
2022/01/17 11:24:04;;;;;;;5.53;1.80;;;;;;;-6.64;79.37;100079.34;5015154;28;20121;-70
2022/01/17 11:26:34;;;;;;;5.35;2.20;;;;;;;-6.52;79.13;100095.19;5013981;28;20058;-70
2022/01/17 11:29:06;;;;;;;3.83;1.58;;;;;;;-6.48;78.99;100101.31;5012484;28;20128;-70
2022/01/17 11:31:39;;;;;;;5.75;1.88;;;;;;;-6.48;78.88;100102.19;5004929;28;20125;-70
2022/01/17 11:34:13;;;;;;;6.20;1.73;;;;;;;-6.46;79.02;100104.78;5005434;28;20077;-69
2022/01/17 11:36:44;;;;;;;4.72;1.83;;;;;;;-6.51;78.83;100096.97;5005277;28;20050;-71
2022/01/17 11:39:15;;;;;;;5.88;2.25;;;;;;;-6.46;79.12;100094.63;4999242;28;20054;-69
2022/01/17 11:41:51;;;;;;;7.72;2.33;;;;;;;-6.42;79.31;100096.53;4997910;28;20363;-71
2022/01/17 11:44:35;;;;;;;6.65;2.20;;;;;;;-6.46;79.05;100090.44;4996316;28;20042;-69
2022/01/17 11:47:14;;;;;;;8.10;3.25;;;;;;;-6.47;79.36;100103.06;4979380;28;20051;-68
2022/01/17 11:49:45;;;;;;;11.43;4.07;;;;;;;-6.55;79.80;100084.88;4979348;28;20051;-69
2022/01/17 11:52:31;;;;;;;10.25;3.30;;;;;;;-6.58;80.15;100092.38;4979221;28;20333;-69
2022/01/17 11:55:02;;;;;;;8.02;2.90;;;;;;;-6.60;80.30;100082.13;4969994;28;20050;-69
2022/01/17 11:57:33;;;;;;;7.07;2.90;;;;;;;-7.17;79.94;99987.84;4998691;28;20577;-69
2022/01/17 12:00:07;;;;;;;9.23;2.95;;;;;;;-6.70;80.29;100059.59;4998421;28;20054;-68
2022/01/17 12:02:40;;;;;;;9.63;3.00;;;;;;;-6.64;80.23;100070.06;4998260;28;20085;-69
2022/01/17 12:05:35;;;;;;;6.43;3.50;;;;;;;-6.69;80.38;100066.41;4998364;28;20065;-69
2022/01/17 12:08:10;;;;;;;8.88;3.95;;;;;;;-6.96;80.39;100010.94;4998184;28;20084;-68
2022/01/17 12:10:44;;;;;;;8.57;3.80;;;;;;;-6.59;80.29;100071.19;4998179;28;20092;-69